createdAt,value
2019-02-19T00:00:14.179Z,98663.73
2019-02-19T00:01:19.636Z,98658.41
2019-02-19T00:02:22.057Z,98661.56
2019-02-19T00:03:23.775Z,98656.23
2019-02-19T00:04:26.164Z,98656.23
2019-02-19T00:05:28.107Z,98657.56
2019-02-19T00:06:30.282Z,98652.22
2019-02-19T00:07:31.987Z,98654.89
2019-02-19T00:08:34.000Z,98651.91
2019-02-19T00:09:36.680Z,98655.42
2019-02-19T00:10:39.151Z,98652.22
2019-02-19T00:11:41.023Z,98648.75
2019-02-19T00:12:42.884Z,98646.08
2019-02-19T00:13:45.265Z,98646.58
2019-02-19T00:14:47.040Z,98649.24
2019-02-19T00:15:49.836Z,98649.24
2019-02-19T00:16:51.952Z,98643.91
2019-02-19T00:17:54.253Z,98641.23
2019-02-19T00:18:56.000Z,98642.88
2019-02-19T00:19:58.284Z,98642.08
2019-02-19T00:21:00.518Z,98642.88
2019-02-19T00:22:02.852Z,98643.41
2019-02-19T00:23:04.924Z,98644.74
2019-02-19T00:24:07.106Z,98642.27
2019-02-19T00:25:09.393Z,98644.93
2019-02-19T00:26:15.790Z,98641.45
2019-02-19T00:27:17.928Z,98639.28
2019-02-19T00:28:20.060Z,98643.28
2019-02-19T00:29:22.429Z,98634.97
2019-02-19T00:30:24.073Z,98633.63
2019-02-19T00:31:26.295Z,98636.61
2019-02-19T00:32:28.188Z,98634.97
2019-02-19T00:33:29.869Z,98635.77
2019-02-19T00:34:32.059Z,98633.63
2019-02-19T00:35:34.057Z,98628.78
2019-02-19T00:36:36.666Z,98628.48
2019-02-19T00:37:38.681Z,98629.81
2019-02-19T00:38:40.948Z,98623.33
2019-02-19T00:39:42.812Z,98626.30
2019-02-19T00:40:44.710Z,98630.84
2019-02-19T00:41:46.720Z,98626.30
2019-02-19T00:42:48.635Z,98619.32
2019-02-19T00:43:50.741Z,98619.32
2019-02-19T00:44:52.828Z,98617.98
2019-02-19T00:45:55.599Z,98621.98
2019-02-19T00:46:57.897Z,98616.84
2019-02-19T00:48:00.478Z,98613.67
2019-02-19T00:49:02.890Z,98613.36
2019-02-19T00:50:05.533Z,98613.67
2019-02-19T00:51:07.287Z,98616.03
2019-02-19T00:52:11.040Z,98614.17
2019-02-19T00:53:13.843Z,98612.84
2019-02-19T00:54:15.879Z,98611.72
2019-02-19T00:55:17.959Z,98611.72
2019-02-19T00:56:20.127Z,98616.53
2019-02-19T00:57:22.319Z,98614.89
2019-02-19T00:58:26.350Z,98609.55
2019-02-19T00:59:28.791Z,98610.58
2019-02-19T01:00:31.125Z,98611.59
2019-02-19T01:01:33.201Z,98612.63
2019-02-19T01:02:35.148Z,98609.95
2019-02-19T01:03:37.359Z,98610.14
2019-02-19T01:04:39.780Z,98608.27
2019-02-19T01:05:42.090Z,98607.47
2019-02-19T01:06:44.128Z,98603.96
2019-02-19T01:07:47.124Z,98608.49
2019-02-19T01:08:49.574Z,98609.83
2019-02-19T01:09:51.360Z,98609.30
2019-02-19T01:10:53.760Z,98609.17
2019-02-19T01:11:56.007Z,98610.52
2019-02-19T01:12:57.812Z,98607.84
2019-02-19T01:13:59.678Z,98604.86
2019-02-19T01:15:02.059Z,98604.86
2019-02-19T01:16:04.084Z,98604.02
2019-02-19T01:17:06.332Z,98600.23
2019-02-19T01:18:08.552Z,98600.55
2019-02-19T01:19:10.234Z,98600.55
2019-02-19T01:20:12.505Z,98602.07
2019-02-19T01:21:15.258Z,98597.57
2019-02-19T01:22:18.218Z,98595.92
2019-02-19T01:23:20.363Z,98591.92
2019-02-19T01:24:22.424Z,98591.92
2019-02-19T01:25:24.162Z,98587.58
2019-02-19T01:26:26.070Z,98588.91
2019-02-19T01:27:28.667Z,98586.77
2019-02-19T01:28:30.886Z,98581.93
2019-02-19T01:29:33.435Z,98582.77
2019-02-19T01:30:35.378Z,98585.75
2019-02-19T01:31:37.199Z,98586.77
2019-02-19T01:32:39.170Z,98588.91
2019-02-19T01:33:41.895Z,98585.94
2019-02-19T01:34:44.029Z,98587.58
2019-02-19T01:35:46.453Z,98585.44
2019-02-19T01:36:48.482Z,98580.59
2019-02-19T01:37:50.656Z,98582.12
2019-02-19T01:38:53.378Z,98581.31
2019-02-19T01:39:55.751Z,98578.33
2019-02-19T01:40:57.923Z,98578.83
2019-02-19T01:41:59.815Z,98579.82
2019-02-19T01:43:01.775Z,98577.65
2019-02-19T01:44:03.713Z,98578.67
2019-02-19T01:45:07.935Z,98583.70
2019-02-19T01:46:09.815Z,98575.08
2019-02-19T01:47:11.702Z,98575.27
2019-02-19T01:48:13.517Z,98577.93
2019-02-19T01:49:15.618Z,98578.42
2019-02-19T01:50:17.493Z,98574.61
2019-02-19T01:51:19.203Z,98573.15
2019-02-19T01:52:21.045Z,98576.16
2019-02-19T01:53:23.161Z,98571.02
2019-02-19T01:54:25.251Z,98571.02
2019-02-19T01:55:27.080Z,98573.15
2019-02-19T01:56:29.221Z,98571.81
2019-02-19T01:57:30.966Z,98571.62
2019-02-19T01:58:32.831Z,98570.30
2019-02-19T01:59:35.281Z,98569.80
2019-02-19T02:00:37.882Z,98571.94
2019-02-19T02:01:40.020Z,98565.92
2019-02-19T02:02:41.891Z,98568.41
2019-02-19T02:03:43.944Z,98571.38
2019-02-19T02:04:46.524Z,98570.05
2019-02-19T02:05:48.428Z,98570.36
2019-02-19T02:06:50.625Z,98573.34
2019-02-19T02:07:52.886Z,98566.66
2019-02-19T02:08:54.893Z,98570.17
2019-02-19T02:09:57.272Z,98569.15
2019-02-19T02:10:59.184Z,98563.31
2019-02-19T02:12:01.330Z,98570.64
2019-02-19T02:13:04.358Z,98565.30
2019-02-19T02:14:06.260Z,98570.82
2019-02-19T02:15:08.900Z,98569.98
2019-02-19T02:16:10.976Z,98568.31
2019-02-19T02:17:12.819Z,98565.83
2019-02-19T02:18:14.852Z,98563.38
2019-02-19T02:19:17.088Z,98566.54
2019-02-19T02:20:18.935Z,98565.73
2019-02-19T02:21:20.730Z,98565.39
2019-02-19T02:22:22.636Z,98558.41
2019-02-19T02:23:24.622Z,98563.44
2019-02-19T02:24:26.508Z,98559.63
2019-02-19T02:25:28.384Z,98556.16
2019-02-19T02:26:30.247Z,98557.98
2019-02-19T02:27:32.471Z,98560.64
2019-02-19T02:28:34.665Z,98559.31
2019-02-19T02:29:37.089Z,98561.67
2019-02-19T02:30:39.402Z,98557.14
2019-02-19T02:31:41.802Z,98554.47
2019-02-19T02:32:43.566Z,98554.47
2019-02-19T02:33:45.646Z,98557.14
2019-02-19T02:34:48.498Z,98555.00
2019-02-19T02:35:50.591Z,98555.81
2019-02-19T02:36:52.801Z,98552.15
2019-02-19T02:37:55.163Z,98557.48
2019-02-19T02:38:57.403Z,98545.48
2019-02-19T02:39:59.095Z,98553.48
2019-02-19T02:41:02.852Z,98552.15
2019-02-19T02:42:05.135Z,98551.80
2019-02-19T02:43:08.768Z,98555.50
2019-02-19T02:44:10.864Z,98553.67
2019-02-19T02:45:12.903Z,98549.55
2019-02-19T02:46:14.582Z,98552.70
2019-02-19T02:47:16.749Z,98552.20
2019-02-19T02:48:18.643Z,98550.88
2019-02-19T02:49:20.603Z,98550.88
2019-02-19T02:50:22.587Z,98547.19
2019-02-19T02:51:26.356Z,98543.00
2019-02-19T02:52:28.543Z,98556.65
2019-02-19T02:53:30.386Z,98559.44
2019-02-19T02:54:32.246Z,98552.77
2019-02-19T02:55:34.271Z,98550.10
2019-02-19T02:56:36.581Z,98548.95
2019-02-19T02:57:38.413Z,98556.46
2019-02-19T02:58:40.396Z,98551.93
2019-02-19T02:59:42.330Z,98551.93
2019-02-19T03:00:44.838Z,98547.13
2019-02-19T03:01:46.819Z,98546.09
2019-02-19T03:02:48.653Z,98547.43
2019-02-19T03:03:50.755Z,98547.43
2019-02-19T03:04:52.583Z,98546.09
2019-02-19T03:05:56.913Z,98547.43
2019-02-19T03:07:00.713Z,98544.77
2019-02-19T03:08:04.510Z,98544.45
2019-02-19T03:09:06.940Z,98542.81
2019-02-19T03:10:10.742Z,98548.14
2019-02-19T03:11:12.910Z,98543.00
2019-02-19T03:12:14.768Z,98544.83
2019-02-19T03:13:16.854Z,98545.05
2019-02-19T03:14:18.656Z,98543.19
2019-02-19T03:15:20.830Z,98542.38
2019-02-19T03:16:23.493Z,98548.21
2019-02-19T03:17:25.700Z,98545.23
2019-02-19T03:18:27.648Z,98541.53
2019-02-19T03:19:29.988Z,98540.20
2019-02-19T03:20:31.884Z,98542.56
2019-02-19T03:21:33.797Z,98546.38
2019-02-19T03:22:35.695Z,98545.85
2019-02-19T03:23:37.566Z,98537.05
2019-02-19T03:24:39.462Z,98541.53
2019-02-19T03:25:41.435Z,98536.20
2019-02-19T03:26:43.931Z,98537.54
2019-02-19T03:27:46.195Z,98532.52
2019-02-19T03:28:48.128Z,98537.54
2019-02-19T03:29:50.471Z,98536.70
2019-02-19T03:30:52.498Z,98531.36
2019-02-19T03:31:54.510Z,98533.53
2019-02-19T03:32:56.499Z,98535.70
2019-02-19T03:33:58.491Z,98533.84
2019-02-19T03:35:00.480Z,98532.20
2019-02-19T03:36:03.459Z,98537.23
2019-02-19T03:37:05.776Z,98526.87
2019-02-19T03:38:07.756Z,98531.89
2019-02-19T03:39:12.283Z,98529.53
2019-02-19T03:40:14.573Z,98526.55
2019-02-19T03:41:16.895Z,98523.05
2019-02-19T03:42:18.755Z,98527.58
2019-02-19T03:43:20.588Z,98523.58
2019-02-19T03:44:22.629Z,98523.36
2019-02-19T03:45:24.827Z,98519.89
2019-02-19T03:46:27.296Z,98514.02
2019-02-19T03:47:29.240Z,98524.20
2019-02-19T03:48:31.453Z,98523.70
2019-02-19T03:49:33.276Z,98521.03
2019-02-19T03:50:35.342Z,98519.36
2019-02-19T03:51:37.354Z,98519.36
2019-02-19T03:52:39.384Z,98518.86
2019-02-19T03:53:41.385Z,98517.03
2019-02-19T03:54:43.857Z,98514.02
2019-02-19T03:55:46.333Z,98517.53
2019-02-19T03:56:48.467Z,98518.86
2019-02-19T03:57:50.292Z,98515.58
2019-02-19T03:58:52.538Z,98517.22
2019-02-19T03:59:54.587Z,98511.58
2019-02-19T04:00:56.730Z,98512.91
2019-02-19T04:01:58.733Z,98514.55
2019-02-19T04:03:00.612Z,98509.71
2019-02-19T04:04:02.417Z,98513.53
2019-02-19T04:05:04.935Z,98505.22
2019-02-19T04:06:07.394Z,98510.86
2019-02-19T04:07:10.493Z,98509.83
2019-02-19T04:08:12.296Z,98515.70
2019-02-19T04:09:14.649Z,98508.91
2019-02-19T04:10:16.542Z,98513.71
2019-02-19T04:11:18.334Z,98515.58
2019-02-19T04:12:20.394Z,98510.55
2019-02-19T04:13:22.152Z,98509.22
2019-02-19T04:14:24.089Z,98509.22
2019-02-19T04:15:26.205Z,98510.36
2019-02-19T04:16:28.173Z,98512.50
2019-02-19T04:17:30.183Z,98511.70
2019-02-19T04:18:33.053Z,98509.22
2019-02-19T04:19:35.377Z,98501.83
2019-02-19T04:20:37.154Z,98505.52
2019-02-19T04:21:38.996Z,98503.69
2019-02-19T04:22:40.803Z,98501.34
2019-02-19T04:23:42.865Z,98504.50
2019-02-19T04:24:44.967Z,98504.19
2019-02-19T04:25:47.377Z,98505.03
2019-02-19T04:26:49.595Z,98501.52
2019-02-19T04:27:51.392Z,98505.52
2019-02-19T04:28:53.333Z,98502.55
2019-02-19T04:29:55.477Z,98504.19
2019-02-19T04:30:57.690Z,98503.16
2019-02-19T04:31:59.598Z,98506.67
2019-02-19T04:33:01.653Z,98505.83
2019-02-19T04:34:03.826Z,98507.48
2019-02-19T04:35:06.391Z,98501.83
2019-02-19T04:36:08.564Z,98505.34
2019-02-19T04:37:10.405Z,98507.48
2019-02-19T04:38:12.432Z,98499.34
2019-02-19T04:39:14.842Z,98507.88
2019-02-19T04:40:16.695Z,98508.38
2019-02-19T04:41:18.640Z,98500.91
2019-02-19T04:42:20.536Z,98501.89
2019-02-19T04:43:22.518Z,98502.23
2019-02-19T04:44:24.359Z,98496.78
2019-02-19T04:45:26.141Z,98496.78
2019-02-19T04:46:31.630Z,98498.92
2019-02-19T04:47:31.648Z,98495.45
2019-02-19T04:48:33.592Z,98499.45
2019-02-19T04:49:35.260Z,98497.58
2019-02-19T04:50:37.292Z,98501.59
2019-02-19T04:51:39.333Z,98497.89
2019-02-19T04:52:41.325Z,98499.57
2019-02-19T04:53:43.536Z,98498.55
2019-02-19T04:54:46.062Z,98500.19
2019-02-19T04:55:48.156Z,98494.35
2019-02-19T04:56:52.199Z,98494.85
2019-02-19T04:57:54.258Z,98496.19
2019-02-19T04:58:56.048Z,98496.19
2019-02-19T04:59:58.021Z,98496.06
2019-02-19T05:00:59.799Z,98488.55
2019-02-19T05:02:01.687Z,98491.44
2019-02-19T05:03:03.558Z,98492.97
2019-02-19T05:04:05.464Z,98494.30
2019-02-19T05:05:07.820Z,98494.30
2019-02-19T05:06:09.828Z,98492.66
2019-02-19T05:07:11.567Z,98497.98
2019-02-19T05:08:13.599Z,98496.66
2019-02-19T05:09:15.865Z,98492.66
2019-02-19T05:10:17.840Z,98497.98
2019-02-19T05:11:19.839Z,98494.30
2019-02-19T05:12:21.901Z,98503.94
2019-02-19T05:13:23.723Z,98498.30
2019-02-19T05:14:25.643Z,98500.13
2019-02-19T05:15:27.439Z,98499.33
2019-02-19T05:16:29.213Z,98498.80
2019-02-19T05:17:31.071Z,98500.13
2019-02-19T05:18:33.129Z,98498.30
2019-02-19T05:19:35.411Z,98497.98
2019-02-19T05:20:37.572Z,98499.63
2019-02-19T05:21:39.454Z,98494.48
2019-02-19T05:22:41.598Z,98496.66
2019-02-19T05:23:43.645Z,98496.31
2019-02-19T05:24:46.539Z,98499.51
2019-02-19T05:25:48.646Z,98497.34
2019-02-19T05:26:50.551Z,98497.34
2019-02-19T05:27:53.972Z,98495.51
2019-02-19T05:28:56.175Z,98502.67
2019-02-19T05:29:57.949Z,98502.67
2019-02-19T05:30:59.657Z,98501.34
2019-02-19T05:32:01.492Z,98497.56
2019-02-19T05:33:03.567Z,98498.67
2019-02-19T05:34:05.354Z,98504.01
2019-02-19T05:35:07.593Z,98507.20
2019-02-19T05:36:09.694Z,98509.03
2019-02-19T05:37:11.463Z,98512.02
2019-02-19T05:38:13.354Z,98515.20
2019-02-19T05:39:15.699Z,98512.02
2019-02-19T05:40:17.504Z,98506.67
2019-02-19T05:41:19.456Z,98513.66
2019-02-19T05:42:21.687Z,98507.82
2019-02-19T05:43:23.580Z,98513.66
2019-02-19T05:44:25.802Z,98505.99
2019-02-19T05:45:27.572Z,98508.13
2019-02-19T05:46:29.342Z,98508.97
2019-02-19T05:47:31.280Z,98507.33
2019-02-19T05:48:33.120Z,98504.97
2019-02-19T05:49:35.042Z,98504.97
2019-02-19T05:50:36.986Z,98514.80
2019-02-19T05:51:39.213Z,98509.77
2019-02-19T05:52:41.470Z,98515.11
2019-02-19T05:53:44.849Z,98514.80
2019-02-19T05:54:47.007Z,98510.49
2019-02-19T05:55:49.308Z,98511.83
2019-02-19T05:56:51.100Z,98509.66
2019-02-19T05:57:53.356Z,98510.67
2019-02-19T05:58:55.400Z,98508.53
2019-02-19T05:59:57.850Z,98515.39
2019-02-19T06:01:00.164Z,98515.70
2019-02-19T06:02:02.531Z,98511.08
2019-02-19T06:03:04.545Z,98512.72
2019-02-19T06:04:06.745Z,98520.73
2019-02-19T06:05:09.435Z,98525.22
2019-02-19T06:06:11.356Z,98524.91
2019-02-19T06:07:13.201Z,98525.44
2019-02-19T06:08:15.319Z,98522.77
2019-02-19T06:09:18.843Z,98525.44
2019-02-19T06:10:21.103Z,98517.44
2019-02-19T06:11:22.948Z,98516.11
2019-02-19T06:12:24.723Z,98516.11
2019-02-19T06:13:26.607Z,98515.45
2019-02-19T06:14:28.613Z,98511.77
2019-02-19T06:15:30.394Z,98512.30
2019-02-19T06:16:32.927Z,98514.43
2019-02-19T06:17:34.833Z,98512.59
2019-02-19T06:18:36.689Z,98512.10
2019-02-19T06:19:38.802Z,98512.91
2019-02-19T06:20:41.172Z,98515.58
2019-02-19T06:21:43.069Z,98511.08
2019-02-19T06:22:45.004Z,98510.05
2019-02-19T06:23:47.089Z,98507.39
2019-02-19T06:24:49.328Z,98510.89
2019-02-19T06:25:51.196Z,98510.37
2019-02-19T06:26:53.267Z,98511.39
2019-02-19T06:27:55.261Z,98510.37
2019-02-19T06:28:57.940Z,98512.02
2019-02-19T06:30:00.274Z,98507.33
2019-02-19T06:31:02.127Z,98507.33
2019-02-19T06:32:04.147Z,98502.30
2019-02-19T06:33:06.146Z,98495.22
2019-02-19T06:34:08.400Z,98499.57
2019-02-19T06:35:11.079Z,98493.20
2019-02-19T06:36:12.742Z,98502.86
2019-02-19T06:37:14.693Z,98497.52
2019-02-19T06:38:16.744Z,98500.69
2019-02-19T06:39:18.900Z,98499.69
2019-02-19T06:40:26.518Z,98506.86
2019-02-19T06:41:28.413Z,98504.00
2019-02-19T06:42:34.167Z,98501.83
2019-02-19T06:43:35.882Z,98499.78
2019-02-19T06:44:38.351Z,98497.64
2019-02-19T06:45:40.252Z,98503.78
2019-02-19T06:46:42.126Z,98494.97
2019-02-19T06:47:43.954Z,98496.00
2019-02-19T06:48:46.026Z,98497.11
2019-02-19T06:49:48.068Z,98496.31
2019-02-19T06:50:50.104Z,98498.78
2019-02-19T06:51:52.234Z,98500.43
2019-02-19T06:52:56.207Z,98499.72
2019-02-19T06:53:58.158Z,98498.69
2019-02-19T06:55:00.346Z,98495.34
2019-02-19T06:56:02.106Z,98496.45
2019-02-19T06:57:04.765Z,98500.27
2019-02-19T06:58:06.710Z,98500.41
2019-02-19T06:59:09.176Z,98498.77
2019-02-19T07:00:12.656Z,98501.25
2019-02-19T07:01:16.940Z,98505.94
2019-02-19T07:02:21.244Z,98503.27
2019-02-19T07:03:25.651Z,98502.78
2019-02-19T07:04:32.411Z,98504.42
2019-02-19T07:05:34.632Z,98506.59
2019-02-19T07:06:38.238Z,98502.06
2019-02-19T07:07:40.221Z,98502.59
2019-02-19T07:08:43.429Z,98500.23
2019-02-19T07:09:45.289Z,98497.06
2019-02-19T07:10:47.267Z,98501.88
2019-02-19T07:11:49.129Z,98493.86
2019-02-19T07:12:51.340Z,98499.73
2019-02-19T07:13:53.384Z,98495.20
2019-02-19T07:14:55.495Z,98496.04
2019-02-19T07:15:57.543Z,98491.20
2019-02-19T07:16:59.762Z,98500.53
2019-02-19T07:18:04.394Z,98495.73
2019-02-19T07:19:06.637Z,98497.87
2019-02-19T07:20:09.734Z,98498.89
2019-02-19T07:21:11.613Z,98496.53
2019-02-19T07:22:13.850Z,98492.84
2019-02-19T07:23:15.792Z,98494.17
2019-02-19T07:24:18.120Z,98490.17
2019-02-19T07:25:20.043Z,98499.52
2019-02-19T07:26:21.923Z,98490.17
2019-02-19T07:27:24.323Z,98493.37
2019-02-19T07:28:26.048Z,98487.50
2019-02-19T07:29:28.089Z,98495.84
2019-02-19T07:30:30.248Z,98493.18
2019-02-19T07:31:32.092Z,98492.34
2019-02-19T07:32:34.284Z,98496.16
2019-02-19T07:33:37.135Z,98495.32
2019-02-19T07:34:40.997Z,98491.63
2019-02-19T07:35:42.975Z,98491.13
2019-02-19T07:36:44.766Z,98492.46
2019-02-19T07:37:46.943Z,98492.46
2019-02-19T07:38:49.357Z,98493.08
2019-02-19T07:39:51.604Z,98484.05
2019-02-19T07:40:53.689Z,98485.91
2019-02-19T07:41:55.975Z,98484.05
2019-02-19T07:42:57.760Z,98480.04
2019-02-19T07:43:59.976Z,98486.71
2019-02-19T07:45:04.152Z,98485.38
2019-02-19T07:46:05.948Z,98483.55
2019-02-19T07:47:08.910Z,98484.39
2019-02-19T07:48:11.139Z,98483.66
2019-02-19T07:49:13.454Z,98479.66
2019-02-19T07:50:15.822Z,98480.50
2019-02-19T07:51:17.699Z,98475.66
2019-02-19T07:52:19.857Z,98471.66
2019-02-19T07:53:22.469Z,98483.98
2019-02-19T07:54:24.171Z,98481.00
2019-02-19T07:55:26.179Z,98481.30
2019-02-19T07:56:28.303Z,98479.97
2019-02-19T07:57:30.546Z,98487.48
2019-02-19T07:58:32.791Z,98478.45
2019-02-19T07:59:34.894Z,98484.59
2019-02-19T08:00:37.663Z,98482.27
2019-02-19T08:01:39.484Z,98479.59
2019-02-19T08:02:41.529Z,98480.20
2019-02-19T08:03:43.614Z,98482.88
2019-02-19T08:04:45.904Z,98478.03
2019-02-19T08:05:47.690Z,98480.52
2019-02-19T08:06:49.729Z,98480.52
2019-02-19T08:07:51.725Z,98477.04
2019-02-19T08:08:53.747Z,98480.83
2019-02-19T08:09:55.861Z,98475.48
2019-02-19T08:10:58.001Z,98477.47
2019-02-19T08:11:59.883Z,98473.46
2019-02-19T08:13:02.296Z,98474.61
2019-02-19T08:14:04.125Z,98475.41
2019-02-19T08:15:09.063Z,98470.91
2019-02-19T08:16:11.412Z,98471.71
2019-02-19T08:17:13.156Z,98474.69
2019-02-19T08:18:14.925Z,98470.49
2019-02-19T08:19:17.269Z,98476.67
2019-02-19T08:20:19.413Z,98481.48
2019-02-19T08:21:21.634Z,98479.65
2019-02-19T08:22:23.873Z,98481.41
2019-02-19T08:23:25.864Z,98483.96
2019-02-19T08:24:27.614Z,98481.94
2019-02-19T08:25:29.480Z,98483.58
2019-02-19T08:26:33.382Z,98479.58
2019-02-19T08:27:35.234Z,98479.88
2019-02-19T08:28:37.264Z,98484.69
2019-02-19T08:29:39.296Z,98478.85
2019-02-19T08:30:41.166Z,98474.84
2019-02-19T08:31:43.339Z,98477.83
2019-02-19T08:32:45.350Z,98477.83
2019-02-19T08:33:47.370Z,98480.00
2019-02-19T08:34:49.679Z,98478.66
2019-02-19T08:35:51.612Z,98467.45
2019-02-19T08:36:53.458Z,98478.13
2019-02-19T08:37:55.505Z,98468.78
2019-02-19T08:38:57.892Z,98472.80
2019-02-19T08:40:00.099Z,98471.80
2019-02-19T08:41:02.374Z,98469.73
2019-02-19T08:42:04.492Z,98470.58
2019-02-19T08:43:07.129Z,98462.88
2019-02-19T08:44:08.930Z,98471.49
2019-02-19T08:45:11.001Z,98477.45
2019-02-19T08:46:12.978Z,98470.28
2019-02-19T08:47:14.882Z,98466.58
2019-02-19T08:48:16.955Z,98461.54
2019-02-19T08:49:18.828Z,98471.53
2019-02-19T08:50:22.771Z,98464.33
2019-02-19T08:51:24.673Z,98468.45
2019-02-19T08:52:26.509Z,98467.95
2019-02-19T08:53:28.589Z,98466.08
2019-02-19T08:54:30.420Z,98457.38
2019-02-19T08:55:34.759Z,98452.03
2019-02-19T08:56:36.823Z,98459.33
2019-02-19T08:57:38.819Z,98457.98
2019-02-19T08:58:41.133Z,98457.48
2019-02-19T08:59:43.353Z,98455.96
2019-02-19T09:00:45.545Z,98461.61
2019-02-19T09:01:47.907Z,98459.24
2019-02-19T09:02:50.861Z,98461.19
2019-02-19T09:03:52.936Z,98454.82
2019-02-19T09:04:55.165Z,98456.49
2019-02-19T09:05:57.571Z,98451.45
2019-02-19T09:06:59.556Z,98452.26
2019-02-19T09:08:01.514Z,98455.08
2019-02-19T09:09:05.406Z,98451.41
2019-02-19T09:10:10.541Z,98450.38
2019-02-19T09:11:13.440Z,98457.05
2019-02-19T09:12:15.280Z,98457.97
2019-02-19T09:13:17.076Z,98457.47
2019-02-19T09:14:19.395Z,98456.94
2019-02-19T09:15:21.281Z,98457.58
2019-02-19T09:16:23.298Z,98453.87
2019-02-19T09:17:25.432Z,98455.52
2019-02-19T09:18:27.503Z,98457.16
2019-02-19T09:19:29.424Z,98451.81
2019-02-19T09:20:31.502Z,98448.45
2019-02-19T09:21:33.696Z,98448.45
2019-02-19T09:22:35.618Z,98454.09
2019-02-19T09:23:37.498Z,98453.91
2019-02-19T09:24:39.344Z,98442.69
2019-02-19T09:25:41.298Z,98447.53
2019-02-19T09:26:43.365Z,98453.67
2019-02-19T09:27:45.177Z,98445.47
2019-02-19T09:28:48.737Z,98446.80
2019-02-19T09:29:51.119Z,98441.45
2019-02-19T09:30:53.287Z,98442.59
2019-02-19T09:31:55.479Z,98443.94
2019-02-19T09:32:57.648Z,98445.58
2019-02-19T09:34:00.780Z,98437.86
2019-02-19T09:35:04.346Z,98440.84
2019-02-19T09:36:06.214Z,98435.49
2019-02-19T09:37:08.207Z,98443.12
2019-02-19T09:38:10.238Z,98441.28
2019-02-19T09:39:11.987Z,98436.24
2019-02-19T09:40:14.304Z,98441.05
2019-02-19T09:41:16.305Z,98438.49
2019-02-19T09:42:18.423Z,98437.16
2019-02-19T09:43:20.368Z,98439.63
2019-02-19T09:44:22.479Z,98439.13
2019-02-19T09:45:24.531Z,98442.91
2019-02-19T09:46:26.592Z,98441.91
2019-02-19T09:47:28.573Z,98435.53
2019-02-19T09:48:30.679Z,98440.15
2019-02-19T09:49:32.495Z,98438.31
2019-02-19T09:50:34.669Z,98437.78
2019-02-19T09:51:36.439Z,98437.08
2019-02-19T09:52:38.637Z,98441.39
2019-02-19T09:53:40.521Z,98436.35
2019-02-19T09:54:42.294Z,98441.70
2019-02-19T09:55:44.171Z,98436.16
2019-02-19T09:56:46.580Z,98440.47
2019-02-19T09:57:48.735Z,98436.96
2019-02-19T09:58:50.737Z,98437.60
2019-02-19T09:59:52.767Z,98438.94
2019-02-19T10:00:54.808Z,98441.41
2019-02-19T10:01:57.081Z,98439.73
2019-02-19T10:02:59.154Z,98438.20
2019-02-19T10:04:00.958Z,98436.87
2019-02-19T10:05:05.916Z,98432.86
2019-02-19T10:06:07.706Z,98435.34
2019-02-19T10:07:09.558Z,98436.47
2019-02-19T10:08:11.658Z,98439.95
2019-02-19T10:09:13.910Z,98431.23
2019-02-19T10:10:19.989Z,98434.91
2019-02-19T10:11:22.018Z,98444.91
2019-02-19T10:12:24.074Z,98427.53
2019-02-19T10:13:26.326Z,98426.69
2019-02-19T10:14:28.372Z,98427.53
2019-02-19T10:15:30.216Z,98434.71
2019-02-19T10:16:41.160Z,98428.03
2019-02-19T10:17:36.362Z,98424.31
2019-02-19T10:18:38.150Z,98425.45
2019-02-19T10:19:40.652Z,98430.30
2019-02-19T10:20:42.817Z,98419.61
2019-02-19T10:21:45.783Z,98422.58
2019-02-19T10:22:47.729Z,98415.06
2019-02-19T10:23:49.957Z,98419.91
2019-02-19T10:24:52.444Z,98422.08
2019-02-19T10:25:54.633Z,98413.23
2019-02-19T10:26:56.380Z,98416.20
2019-02-19T10:27:58.249Z,98406.84
2019-02-19T10:29:00.604Z,98413.83
2019-02-19T10:30:15.103Z,98409.82
2019-02-19T10:31:17.285Z,98416.00
2019-02-19T10:32:19.278Z,98412.59
2019-02-19T10:33:21.524Z,98406.45
2019-02-19T10:34:24.397Z,98407.55
2019-02-19T10:35:26.286Z,98412.70
2019-02-19T10:36:28.091Z,98410.02
2019-02-19T10:37:30.353Z,98417.35
2019-02-19T10:38:32.830Z,98408.83
2019-02-19T10:39:34.489Z,98403.48
2019-02-19T10:40:36.245Z,98408.13
2019-02-19T10:41:38.173Z,98405.22
2019-02-19T10:42:39.982Z,98401.01
2019-02-19T10:43:41.989Z,98407.49
2019-02-19T10:44:43.879Z,98412.84
2019-02-19T10:45:46.084Z,98399.47
2019-02-19T10:46:48.600Z,98405.42
2019-02-19T10:47:51.854Z,98398.53
2019-02-19T10:48:54.220Z,98395.36
2019-02-19T10:49:56.530Z,98393.48
2019-02-19T10:50:58.533Z,98400.17
2019-02-19T10:52:00.598Z,98395.66
2019-02-19T10:53:02.866Z,98405.02
2019-02-19T10:54:04.685Z,98402.65
2019-02-19T10:55:08.510Z,98397.50
2019-02-19T10:56:10.695Z,98395.66
2019-02-19T10:57:12.894Z,98396.70
2019-02-19T10:58:22.477Z,98391.84
2019-02-19T10:59:18.584Z,98392.69
2019-02-19T11:00:21.929Z,98394.52
2019-02-19T11:01:24.086Z,98392.88
2019-02-19T11:02:26.080Z,98393.69
2019-02-19T11:03:27.913Z,98388.67
2019-02-19T11:04:30.176Z,98385.16
2019-02-19T11:05:32.443Z,98377.98
2019-02-19T11:06:34.544Z,98379.91
2019-02-19T11:07:36.732Z,98378.98
2019-02-19T11:08:38.798Z,98385.46
2019-02-19T11:09:40.799Z,98375.30
2019-02-19T11:10:43.133Z,98369.11
2019-02-19T11:11:45.338Z,98373.62
2019-02-19T11:12:47.479Z,98372.92
2019-02-19T11:13:49.609Z,98367.38
2019-02-19T11:14:53.179Z,98371.59
2019-02-19T11:15:55.253Z,98365.20
2019-02-19T11:16:57.763Z,98370.55
2019-02-19T11:17:59.803Z,98368.38
2019-02-19T11:19:01.663Z,98363.36
2019-02-19T11:20:17.595Z,98359.55
2019-02-19T11:21:20.564Z,98366.54
2019-02-19T11:22:22.777Z,98368.18
2019-02-19T11:23:25.184Z,98362.03
2019-02-19T11:24:27.231Z,98351.83
2019-02-19T11:25:29.563Z,98352.13
2019-02-19T11:26:31.443Z,98355.34
2019-02-19T11:27:33.441Z,98349.45
2019-02-19T11:28:35.600Z,98338.25
2019-02-19T11:29:37.524Z,98339.89
2019-02-19T11:30:39.436Z,98346.05
2019-02-19T11:31:41.399Z,98344.20
2019-02-19T11:32:43.646Z,98347.37
2019-02-19T11:33:46.176Z,98334.34
2019-02-19T11:34:47.987Z,98333.00
2019-02-19T11:35:50.146Z,98346.37
2019-02-19T11:36:51.995Z,98331.33
2019-02-19T11:37:53.923Z,98340.69
2019-02-19T11:38:56.144Z,98334.34
2019-02-19T11:39:58.314Z,98333.80
2019-02-19T11:41:00.148Z,98327.66
2019-02-19T11:42:02.563Z,98332.16
2019-02-19T11:43:04.632Z,98324.64
2019-02-19T11:44:06.748Z,98312.61
2019-02-19T11:45:14.340Z,98310.97
2019-02-19T11:46:16.573Z,98323.64
2019-02-19T11:47:26.498Z,98321.97
2019-02-19T11:48:22.954Z,98306.95
2019-02-19T11:49:25.893Z,98323.00
2019-02-19T11:50:28.436Z,98325.38
2019-02-19T11:51:30.572Z,98316.62
2019-02-19T11:52:32.438Z,98331.87
2019-02-19T11:53:34.464Z,98308.59
2019-02-19T11:54:36.658Z,98304.08
2019-02-19T11:55:39.020Z,98303.25
2019-02-19T11:56:40.820Z,98312.94
2019-02-19T11:57:43.006Z,98317.25
2019-02-19T11:58:44.950Z,98313.24
2019-02-19T11:59:46.962Z,98319.92
2019-02-19T12:00:48.979Z,98306.55
2019-02-19T12:01:51.549Z,98304.18
2019-02-19T12:02:53.358Z,98310.36
2019-02-19T12:03:55.420Z,98305.81
2019-02-19T12:04:57.546Z,98322.16
2019-02-19T12:05:59.468Z,98309.63
2019-02-19T12:07:01.452Z,98293.07
2019-02-19T12:08:03.962Z,98294.70
2019-02-19T12:09:06.087Z,98304.07
2019-02-19T12:10:08.891Z,98308.38
2019-02-19T12:11:10.934Z,98295.01